Decoded Metar for EICK (CORK in IRELAND) (IATA:ORK) | Meteo·Mobile Aviation Weather
aviador You're here:

EICK Decoded Metar

CORK in IRELAND
Report Time2019-01-19 05:30:00
UTC Time2019-01-19 05:53:02
Flight Rules vfr VFR
Wind300° at 06 kt
W.Decomp.*RWY 35: 4.2 kt HW 4.2 kt LCW
RWY 25: 3.4 kt HW 4.9 kt RCW
W.Rank300° ranks 7
Current wind is below 300° avg. (9.9)
Visibility9999 m
Phenomena:N/A
Clouds:Few 045 Hf
Expected CloudBase > 400 ft AGL from Temp-Dew spread
CeilingNone
Temp05°C (ISA -9)
Dew Point04°C (93% RH)
AAT1.5°C
QNH1003 hPa
Density Alt-131 ft
Elevation502 ft
Report Wrong Elevation
Raw Report
METAR EICK 190530Z 30006KT 9999 FEW045 05/04 Q1003 NOSIG=

Extra information for EICK:More info

Metar Taf Metar & Taf Last 4 Metars F.Rules Stats Wind Profile Meteogram Temp Stats Airport Information Weather charts Add Link Nearby VenuesMetar ALERT Operation Metar Decoded Social comments